Time;durP1;ratioP1;P1;durP2;ratioP2;P2;SDS_P1;SDS_P2;PMS_P1;PMS_P2;Temp;Humidity;BMP_temperature;BMP_pressure;BME280_temperature;BME280_humidity;BME280_pressure;Samples;Min_cycle;Max_cycle;Signal;HPM_P1;HPM_P2
2022/02/23 00:00:08;;;;;;;;;;;5.80;99.90;;;;;;5096296;28;19923;-51
2022/02/23 00:02:33;;;;;;;;;;;5.80;99.90;;;;;;5096345;28;20378;-51
2022/02/23 00:04:59;;;;;;;;;;;5.80;99.90;;;;;;5096816;28;19924;-47
2022/02/23 00:07:24;;;;;;;;;;;5.80;99.90;;;;;;5096259;28;19927;-50
2022/02/23 00:09:52;;;;;;;;;;;5.80;99.90;;;;;;5096419;28;19916;-50
2022/02/23 00:12:17;;;;;;;;;;;5.70;99.90;;;;;;5096184;28;20049;-47
2022/02/23 00:14:43;;;;;;;;;;;5.80;99.90;;;;;;5096217;28;19998;-46
2022/02/23 00:17:08;;;;;;;;;;;5.70;99.90;;;;;;5096028;28;19923;-52
2022/02/23 00:19:34;;;;;;;;;;;5.70;99.90;;;;;;5096379;28;19916;-51
2022/02/23 00:21:59;;;;;;;;;;;5.70;99.90;;;;;;5096085;28;19916;-51
2022/02/23 00:24:25;;;;;;;;;;;5.60;99.90;;;;;;5096013;28;20369;-48
2022/02/23 00:26:51;;;;;;;;;;;5.70;99.90;;;;;;5095740;28;20344;-49
2022/02/23 00:29:16;;;;;;;;;;;5.60;99.90;;;;;;5094635;28;19920;-46
2022/02/23 00:31:42;;;;;;;;;;;5.60;99.90;;;;;;5094802;28;19924;-50
2022/02/23 00:34:07;;;;;;;;;;;5.60;99.90;;;;;;5095634;28;19920;-51
2022/02/23 00:36:33;;;;;;;;;;;5.50;99.90;;;;;;5096015;28;19919;-50
2022/02/23 00:38:59;;;;;;;;;;;5.50;99.90;;;;;;5095797;28;20010;-47
2022/02/23 00:41:24;;;;;;;;;;;5.50;99.90;;;;;;5095836;28;20308;-51
2022/02/23 00:43:50;;;;;;;;;;;5.40;99.90;;;;;;5095943;28;20530;-49
2022/02/23 00:46:15;;;;;;;;;;;5.40;99.90;;;;;;5095606;28;19934;-51
2022/02/23 00:48:41;;;;;;;;;;;5.40;99.90;;;;;;5095736;28;19923;-51
2022/02/23 00:51:06;;;;;;;;;;;5.50;99.90;;;;;;5095477;28;19916;-49
2022/02/23 00:53:32;;;;;;;;;;;5.50;99.90;;;;;;5095587;28;20289;-50
2022/02/23 00:55:57;;;;;;;;;;;5.40;99.90;;;;;;5095583;28;20323;-49
2022/02/23 00:58:23;;;;;;;;;;;5.40;99.90;;;;;;5095421;28;19916;-51
2022/02/23 01:00:48;;;;;;;;;;;5.40;99.90;;;;;;5095214;28;20433;-50
2022/02/23 01:03:14;;;;;;;;;;;5.40;99.90;;;;;;5095156;28;19920;-50
2022/02/23 01:05:40;;;;;;;;;;;5.40;99.90;;;;;;5095214;28;20020;-47
2022/02/23 01:08:05;;;;;;;;;;;5.40;99.90;;;;;;5093944;28;20277;-49
2022/02/23 01:10:31;;;;;;;;;;;5.50;99.90;;;;;;5095276;28;19923;-50
2022/02/23 01:12:57;;;;;;;;;;;5.40;99.90;;;;;;5095088;28;19923;-49
2022/02/23 01:15:22;;;;;;;;;;;5.40;99.90;;;;;;5095034;28;19926;-50
2022/02/23 01:17:48;;;;;;;;;;;5.40;99.90;;;;;;5094814;28;20411;-50
2022/02/23 01:20:13;;;;;;;;;;;5.40;99.90;;;;;;5095255;28;19985;-47
2022/02/23 01:22:39;;;;;;;;;;;5.40;99.90;;;;;;5095147;28;19962;-51
2022/02/23 01:25:05;;;;;;;;;;;5.40;99.90;;;;;;5094843;28;19916;-51
2022/02/23 01:27:31;;;;;;;;;;;5.40;99.90;;;;;;5094716;28;19965;-50
2022/02/23 01:29:57;;;;;;;;;;;5.40;99.90;;;;;;5094844;28;20328;-51
2022/02/23 01:32:22;;;;;;;;;;;5.40;99.90;;;;;;5094507;28;19943;-47
2022/02/23 01:34:48;;;;;;;;;;;5.30;99.90;;;;;;5094833;28;20374;-51
2022/02/23 01:37:14;;;;;;;;;;;5.30;99.90;;;;;;5094756;28;20378;-51
2022/02/23 01:39:39;;;;;;;;;;;5.30;99.90;;;;;;5094590;28;19988;-50
2022/02/23 01:42:05;;;;;;;;;;;5.30;99.90;;;;;;5094579;28;19927;-51
2022/02/23 01:44:31;;;;;;;;;;;5.30;99.90;;;;;;5094347;28;19916;-50
2022/02/23 01:46:56;;;;;;;;;;;5.30;99.90;;;;;;5094561;28;19924;-51
2022/02/23 01:49:23;;;;;;;;;;;5.40;99.90;;;;;;5094472;28;19923;-51
2022/02/23 01:51:50;;;;;;;;;;;5.30;99.90;;;;;;5094481;28;19930;-52
2022/02/23 01:54:15;;;;;;;;;;;5.30;99.90;;;;;;5094324;28;20007;-49
2022/02/23 01:56:41;;;;;;;;;;;5.30;99.90;;;;;;5094209;28;20401;-51
2022/02/23 01:59:06;;;;;;;;;;;5.30;99.90;;;;;;5094144;28;20354;-51
2022/02/23 02:01:32;;;;;;;;;;;5.20;99.90;;;;;;5094433;28;19920;-46
2022/02/23 02:03:57;;;;;;;;;;;5.30;99.90;;;;;;5094366;28;19920;-49
2022/02/23 02:06:23;;;;;;;;;;;5.20;99.90;;;;;;5094040;28;19920;-50
2022/02/23 02:08:49;;;;;;;;;;;5.20;99.90;;;;;;5094087;28;19961;-48
2022/02/23 02:11:14;;;;;;;;;;;5.20;99.90;;;;;;5093867;28;19915;-49
2022/02/23 02:13:40;;;;;;;;;;;5.20;99.90;;;;;;5093897;28;19916;-46
2022/02/23 02:16:06;;;;;;;;;;;5.10;99.90;;;;;;5093864;28;19930;-50
2022/02/23 02:18:31;;;;;;;;;;;5.20;99.90;;;;;;5092307;28;20367;-50
2022/02/23 02:20:57;;;;;;;;;;;5.10;99.90;;;;;;5093933;28;19916;-50
2022/02/23 02:23:22;;;;;;;;;;;5.10;99.90;;;;;;5092632;28;19920;-51
2022/02/23 02:25:48;;;;;;;;;;;5.10;99.90;;;;;;5093904;28;20006;-46
2022/02/23 02:28:14;;;;;;;;;;;5.10;99.90;;;;;;5093654;28;19916;-46
2022/02/23 02:30:39;;;;;;;;;;;5.10;99.90;;;;;;5094221;28;19920;-51
2022/02/23 02:33:05;;;;;;;;;;;5.10;99.90;;;;;;5093534;28;19923;-51
2022/02/23 02:35:36;;;;;;;;;;;5.10;99.90;;;;;;5093661;28;19999;-51
2022/02/23 02:38:04;;;;;;;;;;;5.10;99.90;;;;;;5093619;28;19963;-51
2022/02/23 02:40:31;;;;;;;;;;;5.10;99.90;;;;;;5093549;28;19915;-51
2022/02/23 02:42:56;;;;;;;;;;;5.00;99.90;;;;;;5093202;28;19916;-49
2022/02/23 02:45:23;;;;;;;;;;;5.10;99.90;;;;;;5093697;28;20310;-51
2022/02/23 02:47:48;;;;;;;;;;;5.10;99.90;;;;;;5093435;28;20388;-51
2022/02/23 02:50:14;;;;;;;;;;;5.10;99.90;;;;;;5093121;28;19967;-50
2022/02/23 02:52:39;;;;;;;;;;;5.00;99.90;;;;;;5093086;28;19923;-50
2022/02/23 02:55:05;;;;;;;;;;;5.00;99.90;;;;;;5093441;28;19946;-50
2022/02/23 02:57:31;;;;;;;;;;;5.00;99.90;;;;;;5093231;28;20372;-50
2022/02/23 02:59:56;;;;;;;;;;;5.10;99.90;;;;;;5093229;28;19920;-50
2022/02/23 03:02:22;;;;;;;;;;;5.10;99.90;;;;;;5093257;28;19916;-52
2022/02/23 03:04:47;;;;;;;;;;;5.10;99.90;;;;;;5093116;28;20354;-50
2022/02/23 03:07:13;;;;;;;;;;;5.00;99.90;;;;;;5092810;28;19927;-49
2022/02/23 03:09:38;;;;;;;;;;;5.10;99.90;;;;;;5093011;28;19916;-51
2022/02/23 03:12:04;;;;;;;;;;;5.10;99.90;;;;;;5092786;28;20359;-51
2022/02/23 03:14:30;;;;;;;;;;;5.20;99.90;;;;;;5092843;28;20377;-52
2022/02/23 03:16:55;;;;;;;;;;;5.20;99.90;;;;;;5074911;28;19927;-50
2022/02/23 03:19:21;;;;;;;;;;;5.20;99.90;;;;;;5092976;28;19919;-47
2022/02/23 03:21:46;;;;;;;;;;;5.30;99.90;;;;;;5092682;28;20294;-47
2022/02/23 03:24:12;;;;;;;;;;;5.30;99.90;;;;;;5092721;28;19916;-51
2022/02/23 03:26:37;;;;;;;;;;;5.30;99.90;;;;;;5092509;28;19927;-50
2022/02/23 03:29:03;;;;;;;;;;;5.30;99.90;;;;;;5092983;28;19919;-48
2022/02/23 03:31:28;;;;;;;;;;;5.20;99.90;;;;;;5092129;28;20363;-49
2022/02/23 03:33:54;;;;;;;;;;;5.30;99.90;;;;;;5092175;28;20011;-48
2022/02/23 03:36:19;;;;;;;;;;;5.20;99.90;;;;;;5092489;28;19915;-47
2022/02/23 03:38:46;;;;;;;;;;;5.20;99.90;;;;;;5092524;28;19919;-51
2022/02/23 03:41:12;;;;;;;;;;;5.20;99.90;;;;;;5092332;28;19916;-50
2022/02/23 03:43:38;;;;;;;;;;;5.30;99.90;;;;;;5092652;28;19923;-50
2022/02/23 03:46:03;;;;;;;;;;;5.30;99.90;;;;;;5092257;28;19920;-51
2022/02/23 03:48:29;;;;;;;;;;;5.30;99.90;;;;;;5092178;28;19961;-51
2022/02/23 03:50:55;;;;;;;;;;;5.20;99.90;;;;;;5092285;28;19923;-50
2022/02/23 03:53:20;;;;;;;;;;;5.20;99.90;;;;;;5092338;28;19916;-49
2022/02/23 03:55:46;;;;;;;;;;;5.20;99.90;;;;;;5092028;28;19923;-50
2022/02/23 03:58:12;;;;;;;;;;;5.10;99.90;;;;;;5092180;28;20301;-49
2022/02/23 04:00:37;;;;;;;;;;;5.20;99.90;;;;;;5092129;28;19916;-50
2022/02/23 04:03:03;;;;;;;;;;;5.10;99.90;;;;;;5092361;28;19916;-52
2022/02/23 04:05:29;;;;;;;;;;;5.10;99.90;;;;;;5091992;28;20366;-47
2022/02/23 04:07:54;;;;;;;;;;;5.00;99.90;;;;;;5092215;28;19920;-49
2022/02/23 04:10:20;;;;;;;;;;;5.00;99.90;;;;;;5092426;28;19927;-51
2022/02/23 04:12:47;;;;;;;;;;;5.00;99.90;;;;;;5092093;28;19920;-51
2022/02/23 04:15:13;;;;;;;;;;;5.00;99.90;;;;;;5092444;28;19916;-48
2022/02/23 04:17:38;;;;;;;;;;;5.00;99.90;;;;;;5092034;28;19998;-52
2022/02/23 04:20:05;;;;;;;;;;;5.00;99.90;;;;;;5092144;28;20433;-51
2022/02/23 04:22:30;;;;;;;;;;;5.00;99.90;;;;;;5092101;28;19959;-51
2022/02/23 04:24:56;;;;;;;;;;;5.10;99.90;;;;;;5092226;28;19977;-50
2022/02/23 04:27:21;;;;;;;;;;;5.00;99.90;;;;;;5092110;28;20015;-48
2022/02/23 04:29:47;;;;;;;;;;;5.00;99.90;;;;;;5092013;28;19916;-49
2022/02/23 04:32:12;;;;;;;;;;;4.90;99.90;;;;;;5091866;28;20285;-50
2022/02/23 04:34:38;;;;;;;;;;;4.80;99.90;;;;;;5091935;28;20353;-50
2022/02/23 04:37:03;;;;;;;;;;;4.90;99.90;;;;;;5091901;28;19916;-51
2022/02/23 04:39:29;;;;;;;;;;;4.80;99.90;;;;;;5091795;28;19920;-49
2022/02/23 04:41:55;;;;;;;;;;;4.80;99.90;;;;;;5093060;28;20007;-52
2022/02/23 04:44:21;;;;;;;;;;;4.80;99.90;;;;;;5095758;28;19999;-52
2022/02/23 04:46:46;;;;;;;;;;;4.70;99.90;;;;;;5095445;28;19967;-51
2022/02/23 04:49:12;;;;;;;;;;;4.80;99.90;;;;;;5095741;28;20352;-50
2022/02/23 04:51:38;;;;;;;;;;;4.80;99.90;;;;;;5095734;28;20034;-51
2022/02/23 04:54:03;;;;;;;;;;;4.70;99.90;;;;;;5095455;28;19916;-50
2022/02/23 04:56:29;;;;;;;;;;;4.70;99.90;;;;;;5095239;28;19972;-47
2022/02/23 04:58:54;;;;;;;;;;;4.80;99.90;;;;;;5095493;28;20019;-49
2022/02/23 05:01:20;;;;;;;;;;;4.70;99.90;;;;;;5095584;28;20421;-51
2022/02/23 05:03:46;;;;;;;;;;;4.80;99.90;;;;;;5095389;28;19965;-51
2022/02/23 05:06:11;;;;;;;;;;;4.70;99.90;;;;;;5094940;28;19920;-51
2022/02/23 05:08:37;;;;;;;;;;;4.70;99.90;;;;;;5095785;28;19922;-52
2022/02/23 05:11:02;;;;;;;;;;;4.80;99.90;;;;;;5095049;28;20323;-51
2022/02/23 05:13:31;;;;;;;;;;;4.70;99.90;;;;;;5095239;28;19968;-48
2022/02/23 05:15:58;;;;;;;;;;;4.70;99.90;;;;;;5094973;28;19938;-51
2022/02/23 05:18:24;;;;;;;;;;;4.70;99.90;;;;;;5095248;28;20266;-49
2022/02/23 05:20:49;;;;;;;;;;;4.70;99.90;;;;;;5094872;28;19916;-49
2022/02/23 05:23:16;;;;;;;;;;;4.80;99.90;;;;;;5094813;28;19923;-50
2022/02/23 05:25:41;;;;;;;;;;;4.70;99.90;;;;;;5094678;28;19923;-51
2022/02/23 05:28:07;;;;;;;;;;;4.70;99.90;;;;;;5094908;28;19916;-49
2022/02/23 05:30:32;;;;;;;;;;;4.70;99.90;;;;;;5094780;28;20366;-47
2022/02/23 05:32:58;;;;;;;;;;;4.60;99.90;;;;;;5093270;28;20294;-51
2022/02/23 05:35:24;;;;;;;;;;;4.60;99.90;;;;;;5095202;28;19920;-52
2022/02/23 05:37:49;;;;;;;;;;;4.70;99.90;;;;;;5094724;28;20283;-51
2022/02/23 05:40:15;;;;;;;;;;;4.60;99.90;;;;;;5094448;28;20006;-49
2022/02/23 05:42:41;;;;;;;;;;;4.60;99.90;;;;;;5094381;28;19923;-49
2022/02/23 05:45:07;;;;;;;;;;;4.60;99.90;;;;;;5094580;28;19916;-48
2022/02/23 05:47:33;;;;;;;;;;;4.60;99.90;;;;;;5094280;28;19920;-48
2022/02/23 05:49:58;;;;;;;;;;;4.60;99.90;;;;;;5094316;28;19961;-50
2022/02/23 05:52:24;;;;;;;;;;;4.60;99.90;;;;;;5094052;28;19916;-50
2022/02/23 05:54:49;;;;;;;;;;;4.50;99.90;;;;;;5093832;28;19962;-51
2022/02/23 05:57:15;;;;;;;;;;;4.50;99.90;;;;;;5094369;28;19951;-48
2022/02/23 05:59:41;;;;;;;;;;;4.40;99.90;;;;;;5094248;28;19959;-51
2022/02/23 06:02:06;;;;;;;;;;;4.40;99.90;;;;;;5094229;28;19927;-45
2022/02/23 06:04:34;;;;;;;;;;;4.50;99.90;;;;;;5094185;28;19915;-50
2022/02/23 06:07:00;;;;;;;;;;;4.50;99.90;;;;;;5092785;28;19998;-49
2022/02/23 06:09:25;;;;;;;;;;;4.50;99.90;;;;;;5094338;28;20330;-51
2022/02/23 06:11:51;;;;;;;;;;;4.40;99.90;;;;;;5094195;28;19916;-50
2022/02/23 06:14:17;;;;;;;;;;;4.40;99.90;;;;;;5094019;28;19923;-49
2022/02/23 06:16:42;;;;;;;;;;;4.50;99.90;;;;;;5093963;28;19915;-49
2022/02/23 06:19:08;;;;;;;;;;;4.40;99.90;;;;;;5094225;28;20274;-51
2022/02/23 06:21:34;;;;;;;;;;;4.50;99.90;;;;;;5093723;28;19923;-49
2022/02/23 06:23:59;;;;;;;;;;;4.50;99.90;;;;;;5093703;28;19923;-46
2022/02/23 06:26:25;;;;;;;;;;;4.50;99.90;;;;;;5092563;28;19924;-49
2022/02/23 06:28:51;;;;;;;;;;;4.50;99.90;;;;;;5093832;28;19984;-51
2022/02/23 06:31:17;;;;;;;;;;;4.50;99.90;;;;;;5093577;28;19916;-50
2022/02/23 06:33:44;;;;;;;;;;;4.50;99.90;;;;;;5093304;28;20038;-52
2022/02/23 06:36:10;;;;;;;;;;;4.40;99.90;;;;;;5093393;28;19916;-49
2022/02/23 06:38:40;;;;;;;;;;;4.40;99.90;;;;;;5093496;28;19926;-51
2022/02/23 06:41:12;;;;;;;;;;;4.40;99.90;;;;;;5093666;28;19926;-50
2022/02/23 06:43:38;;;;;;;;;;;4.40;99.90;;;;;;5092244;28;20328;-51
2022/02/23 06:46:04;;;;;;;;;;;4.40;99.90;;;;;;5093855;28;19920;-48
2022/02/23 06:48:29;;;;;;;;;;;4.40;99.90;;;;;;5093167;28;19923;-48
2022/02/23 06:50:55;;;;;;;;;;;4.30;99.90;;;;;;5092175;28;20285;-47
2022/02/23 06:53:21;;;;;;;;;;;4.40;99.90;;;;;;5093154;28;19915;-50
2022/02/23 06:55:47;;;;;;;;;;;4.30;99.90;;;;;;5093032;28;19922;-49
2022/02/23 06:58:13;;;;;;;;;;;4.40;99.90;;;;;;5093174;28;19923;-51
2022/02/23 07:00:38;;;;;;;;;;;4.30;99.90;;;;;;5092995;28;19916;-51
2022/02/23 07:03:04;;;;;;;;;;;4.30;99.90;;;;;;5093046;28;20401;-51
2022/02/23 07:05:30;;;;;;;;;;;4.30;99.90;;;;;;5092768;28;19920;-50
2022/02/23 07:07:56;;;;;;;;;;;4.30;99.90;;;;;;5093094;28;20040;-50
2022/02/23 07:10:21;;;;;;;;;;;4.40;99.90;;;;;;5092934;28;19916;-49
2022/02/23 07:12:47;;;;;;;;;;;4.40;99.90;;;;;;5092925;28;20120;-51
2022/02/23 07:15:13;;;;;;;;;;;4.50;99.90;;;;;;5092646;28;20350;-51
2022/02/23 07:17:38;;;;;;;;;;;4.50;99.90;;;;;;5092848;28;19916;-48
2022/02/23 07:20:04;;;;;;;;;;;4.60;99.90;;;;;;5092626;28;19945;-50
2022/02/23 07:22:30;;;;;;;;;;;4.60;99.90;;;;;;5092596;28;19931;-51
2022/02/23 07:24:55;;;;;;;;;;;4.60;99.90;;;;;;5092951;28;20340;-51
2022/02/23 07:27:21;;;;;;;;;;;4.80;99.90;;;;;;5092677;28;19927;-49
2022/02/23 07:29:46;;;;;;;;;;;4.80;99.90;;;;;;5092629;28;20312;-49
2022/02/23 07:32:12;;;;;;;;;;;4.80;99.90;;;;;;5092380;28;19938;-50
2022/02/23 07:34:39;;;;;;;;;;;5.00;99.90;;;;;;5092383;28;19939;-52
2022/02/23 07:37:05;;;;;;;;;;;5.00;99.90;;;;;;5092414;28;20373;-51
2022/02/23 07:39:31;;;;;;;;;;;5.20;99.90;;;;;;5092663;28;19963;-51
2022/02/23 07:41:57;;;;;;;;;;;5.40;99.90;;;;;;5092430;28;19916;-51
2022/02/23 07:44:22;;;;;;;;;;;5.60;99.90;;;;;;5092701;28;19923;-51
2022/02/23 07:46:48;;;;;;;;;;;5.80;99.90;;;;;;5091057;28;19919;-51
2022/02/23 07:49:13;;;;;;;;;;;6.10;99.90;;;;;;5092163;28;19916;-52
2022/02/23 07:51:39;;;;;;;;;;;6.30;99.90;;;;;;5092385;28;19916;-51
2022/02/23 07:54:06;;;;;;;;;;;6.50;99.90;;;;;;5092444;28;20439;-49
2022/02/23 07:56:32;;;;;;;;;;;6.70;99.90;;;;;;5090553;28;19923;-62
2022/02/23 07:58:57;;;;;;;;;;;6.80;99.90;;;;;;5092161;28;20277;-62
2022/02/23 08:01:37;;;;;;;;;;;7.00;99.90;;;;;;5092130;28;19916;-62
2022/02/23 08:04:04;;;;;;;;;;;7.30;99.90;;;;;;5090812;28;19916;-63
2022/02/23 08:06:30;;;;;;;;;;;7.50;99.90;;;;;;5092110;28;19920;-62
2022/02/23 08:08:56;;;;;;;;;;;7.60;99.90;;;;;;5092096;28;19955;-63
2022/02/23 08:11:23;;;;;;;;;;;7.90;99.90;;;;;;5092157;28;19916;-62
2022/02/23 08:13:49;;;;;;;;;;;8.10;99.90;;;;;;5092018;28;19916;-62
2022/02/23 08:21:51;;;;;;;;;;;8.80;99.90;;;;;;5096148;28;19922;-63
2022/02/23 08:24:17;;;;;;;;;;;9.00;99.90;;;;;;5095952;28;19956;-62
2022/02/23 08:26:43;;;;;;;;;;;9.20;99.90;;;;;;5095811;28;19978;-63
2022/02/23 08:29:09;;;;;;;;;;;9.30;99.90;;;;;;5096019;28;19916;-63
2022/02/23 08:31:35;;;;;;;;;;;9.30;99.90;;;;;;5095712;28;19916;-63
2022/02/23 08:34:01;;;;;;;;;;;9.50;99.90;;;;;;5095578;28;20354;-63
2022/02/23 08:36:26;;;;;;;;;;;9.70;99.90;;;;;;5096155;28;19962;-63
2022/02/23 08:38:52;;;;;;;;;;;9.70;99.90;;;;;;5095700;28;20023;-63
2022/02/23 08:41:19;;;;;;;;;;;9.70;99.90;;;;;;5095414;28;19961;-64
2022/02/23 08:43:44;;;;;;;;;;;9.80;99.90;;;;;;5095825;28;19977;-63
2022/02/23 08:46:10;;;;;;;;;;;9.90;99.90;;;;;;5095499;28;20358;-64
2022/02/23 08:48:36;;;;;;;;;;;10.00;99.90;;;;;;5095687;28;20429;-63
2022/02/23 08:51:01;;;;;;;;;;;10.10;99.90;;;;;;5095805;28;19954;-63
2022/02/23 08:53:28;;;;;;;;;;;10.30;99.90;;;;;;5095343;28;19919;-63
2022/02/23 08:55:55;;;;;;;;;;;10.40;99.90;;;;;;5095216;28;19923;-63
2022/02/23 08:58:20;;;;;;;;;;;10.70;99.90;;;;;;5094475;28;19916;-63
2022/02/23 09:00:48;;;;;;;;;;;10.90;99.90;;;;;;5095327;28;20389;-63
2022/02/23 09:03:14;;;;;;;;;;;11.00;99.90;;;;;;5095088;28;20030;-64
2022/02/23 09:05:40;;;;;;;;;;;11.10;99.90;;;;;;5095211;28;20002;-63
2022/02/23 09:08:05;;;;;;;;;;;11.20;99.90;;;;;;5094934;28;20377;-63
2022/02/23 09:10:31;;;;;;;;;;;11.20;99.90;;;;;;5093749;28;19916;-62
2022/02/23 09:12:56;;;;;;;;;;;10.90;99.90;;;;;;5095224;28;19915;-63
2022/02/23 09:15:22;;;;;;;;;;;11.00;99.90;;;;;;5095204;28;20338;-63
2022/02/23 09:17:47;;;;;;;;;;;11.30;99.90;;;;;;5095137;28;20411;-63
2022/02/23 09:20:13;;;;;;;;;;;11.00;99.90;;;;;;5094884;28;19916;-63
2022/02/23 09:22:38;;;;;;;;;;;11.30;99.90;;;;;;5094797;28;20007;-63
2022/02/23 09:25:05;;;;;;;;;;;11.10;99.90;;;;;;5094810;28;19916;-63
2022/02/23 09:27:30;;;;;;;;;;;11.20;99.90;;;;;;5075221;28;19927;-63
2022/02/23 09:29:56;;;;;;;;;;;11.40;99.90;;;;;;5093686;28;19919;-64
2022/02/23 09:32:21;;;;;;;;;;;11.00;99.90;;;;;;5094504;28;19924;-63
2022/02/23 09:34:48;;;;;;;;;;;11.30;99.90;;;;;;5094920;28;19920;-62
2022/02/23 09:37:14;;;;;;;;;;;11.50;99.90;;;;;;5094864;28;19920;-63
2022/02/23 09:39:40;;;;;;;;;;;11.60;99.90;;;;;;5094549;28;19916;-64
2022/02/23 09:42:06;;;;;;;;;;;11.60;99.90;;;;;;5094358;28;20002;-61
2022/02/23 09:44:32;;;;;;;;;;;11.20;99.90;;;;;;5094371;28;19916;-60
2022/02/23 09:46:59;;;;;;;;;;;11.30;99.90;;;;;;5094548;28;19973;-61
2022/02/23 09:49:25;;;;;;;;;;;11.10;99.90;;;;;;5094336;28;20289;-61
2022/02/23 09:51:50;;;;;;;;;;;11.10;99.90;;;;;;5094408;28;19916;-61
2022/02/23 09:54:17;;;;;;;;;;;11.10;99.90;;;;;;5094034;28;19923;-61
2022/02/23 09:56:45;;;;;;;;;;;11.10;99.90;;;;;;5094495;28;19916;-61
2022/02/23 09:59:12;;;;;;;;;;;11.00;99.90;;;;;;5094315;28;20356;-60
2022/02/23 10:01:40;;;;;;;;;;;10.90;99.90;;;;;;5094332;28;19962;-60
2022/02/23 10:04:07;;;;;;;;;;;11.10;99.90;;;;;;5094080;28;20073;-62
2022/02/23 10:06:34;;;;;;;;;;;11.10;99.90;;;;;;5093890;28;19931;-62
2022/02/23 10:09:01;;;;;;;;;;;11.00;99.90;;;;;;5093777;28;19923;-62
2022/02/23 10:11:29;;;;;;;;;;;11.20;99.90;;;;;;5094097;28;20323;-62
2022/02/23 10:13:57;;;;;;;;;;;11.20;99.90;;;;;;5094140;28;20324;-52
2022/02/23 10:16:30;;;;;;;;;;;11.10;99.90;;;;;;5093965;28;19916;-51
2022/02/23 10:19:05;;;;;;;;;;;11.30;99.90;;;;;;5094087;28;19963;-61
2022/02/23 10:21:44;;;;;;;;;;;11.20;99.90;;;;;;5093905;28;20002;-51
2022/02/23 10:24:30;;;;;;;;;;;11.20;99.90;;;;;;5093944;28;19916;-50
2022/02/23 10:27:06;;;;;;;;;;;11.20;99.90;;;;;;5093965;28;19984;-62
2022/02/23 10:29:34;;;;;;;;;;;11.10;99.90;;;;;;5093553;28;19915;-48
2022/02/23 10:32:01;;;;;;;;;;;11.10;99.90;;;;;;5093611;28;20347;-48
2022/02/23 10:34:26;;;;;;;;;;;11.20;99.90;;;;;;5093453;28;19967;-51
2022/02/23 10:37:03;;;;;;;;;;;11.20;99.90;;;;;;5093734;28;19970;-51
2022/02/23 10:39:39;;;;;;;;;;;11.20;99.90;;;;;;5093219;28;19919;-62
2022/02/23 10:42:09;;;;;;;;;;;11.20;99.90;;;;;;5093328;28;19955;-62
2022/02/23 10:44:38;;;;;;;;;;;11.30;99.90;;;;;;5093615;28;19917;-62
2022/02/23 10:47:05;;;;;;;;;;;11.40;99.90;;;;;;5093157;28;19920;-49
2022/02/23 10:49:30;;;;;;;;;;;11.30;99.90;;;;;;5093224;28;20358;-52
2022/02/23 10:52:06;;;;;;;;;;;11.30;99.90;;;;;;5093158;28;19923;-62
2022/02/23 10:54:32;;;;;;;;;;;11.40;99.90;;;;;;5091894;28;20392;-62
2022/02/23 10:56:57;;;;;;;;;;;11.50;99.90;;;;;;5093284;28;19964;-62
2022/02/23 10:59:23;;;;;;;;;;;11.60;99.90;;;;;;5093042;28;20014;-62
2022/02/23 11:01:49;;;;;;;;;;;11.50;99.90;;;;;;5093162;28;20342;-61
2022/02/23 11:04:16;;;;;;;;;;;11.70;99.90;;;;;;5093043;28;19923;-62
2022/02/23 11:06:42;;;;;;;;;;;11.60;99.90;;;;;;5091724;28;19927;-62
2022/02/23 11:09:09;;;;;;;;;;;11.60;99.90;;;;;;5092636;28;19916;-62
2022/02/23 11:11:36;;;;;;;;;;;11.50;99.90;;;;;;5093071;28;19916;-62
2022/02/23 11:14:03;;;;;;;;;;;11.40;99.90;;;;;;5092825;28;20345;-62
2022/02/23 11:16:31;;;;;;;;;;;11.60;99.90;;;;;;5092838;28;19916;-62
2022/02/23 11:18:58;;;;;;;;;;;11.50;99.90;;;;;;5092568;28;19916;-61
2022/02/23 11:21:25;;;;;;;;;;;11.60;99.90;;;;;;5092451;28;20358;-62
2022/02/23 11:23:55;;;;;;;;;;;11.60;99.90;;;;;;5092514;28;19985;-62
2022/02/23 11:26:21;;;;;;;;;;;11.70;99.90;;;;;;5092523;28;19927;-62
2022/02/23 11:29:02;;;;;;;;;;;11.80;99.90;;;;;;5092687;28;19920;-61
2022/02/23 11:31:32;;;;;;;;;;;11.90;99.90;;;;;;5092557;28;19926;-61
2022/02/23 11:34:02;;;;;;;;;;;12.00;99.90;;;;;;5092347;28;20014;-62
2022/02/23 11:36:33;;;;;;;;;;;12.00;99.90;;;;;;5092277;28;19952;-62
2022/02/23 11:39:00;;;;;;;;;;;12.00;99.90;;;;;;5092592;28;19916;-62
2022/02/23 11:41:33;;;;;;;;;;;12.00;99.90;;;;;;5092061;28;19964;-61
2022/02/23 11:44:14;;;;;;;;;;;11.90;99.90;;;;;;5092471;28;19915;-61
2022/02/23 11:46:51;;;;;;;;;;;11.90;99.90;;;;;;5092172;28;19927;-61
2022/02/23 11:49:17;;;;;;;;;;;12.00;99.90;;;;;;5092467;28;20057;-61
2022/02/23 11:51:44;;;;;;;;;;;11.90;99.90;;;;;;5091573;28;19919;-61
2022/02/23 11:54:10;;;;;;;;;;;11.90;99.90;;;;;;5092196;28;19915;-61
2022/02/23 11:56:38;;;;;;;;;;;12.00;99.90;;;;;;5092230;28;19965;-61
2022/02/23 11:59:04;;;;;;;;;;;11.90;99.90;;;;;;5092064;28;20429;-61
2022/02/23 12:01:43;;;;;;;;;;;11.90;99.90;;;;;;5092145;28;19976;-60
2022/02/23 12:04:13;;;;;;;;;;;11.70;99.90;;;;;;5092320;28;20301;-61
2022/02/23 12:06:57;;;;;;;;;;;11.40;99.90;;;;;;5092288;28;20277;-61
2022/02/23 12:09:43;;;;;;;;;;;11.70;99.90;;;;;;5092128;28;19916;-61
2022/02/23 12:12:27;;;;;;;;;;;11.60;99.90;;;;;;5092254;28;20281;-50
2022/02/23 12:14:53;;;;;;;;;;;11.40;99.90;;;;;;5092288;28;19923;-52
2022/02/23 12:17:37;;;;;;;;;;;11.40;99.90;;;;;;5092075;28;19917;-60
2022/02/23 12:20:03;;;;;;;;;;;11.60;99.90;;;;;;5091946;28;20327;-61
2022/02/23 12:22:31;;;;;;;;;;;11.60;99.90;;;;;;5092130;28;19916;-61
2022/02/23 12:24:57;;;;;;;;;;;11.60;99.90;;;;;;5092266;28;20008;-61
2022/02/23 12:27:27;;;;;;;;;;;11.50;99.90;;;;;;5092010;28;20016;-61
2022/02/23 12:29:54;;;;;;;;;;;11.30;99.90;;;;;;5091932;28;19951;-61
2022/02/23 12:32:24;;;;;;;;;;;11.40;99.90;;;;;;5091725;28;20278;-61
2022/02/23 12:34:52;;;;;;;;;;;11.30;99.90;;;;;;5092061;28;19947;-60
2022/02/23 12:37:19;;;;;;;;;;;11.20;99.90;;;;;;5091722;28;20357;-60
2022/02/23 12:39:46;;;;;;;;;;;11.20;99.90;;;;;;5091942;28;20060;-60
2022/02/23 12:42:15;;;;;;;;;;;11.20;99.90;;;;;;5091949;28;19916;-61
2022/02/23 12:44:42;;;;;;;;;;;11.40;99.90;;;;;;5091622;28;19916;-61
2022/02/23 12:47:09;;;;;;;;;;;11.40;99.90;;;;;;5090344;28;19927;-61
2022/02/23 12:49:36;;;;;;;;;;;11.50;99.90;;;;;;5092057;28;20006;-61
2022/02/23 12:52:02;;;;;;;;;;;11.60;99.90;;;;;;5091589;28;20393;-62
2022/02/23 12:54:28;;;;;;;;;;;11.70;99.90;;;;;;5091779;28;19916;-61
2022/02/23 12:56:58;;;;;;;;;;;11.80;99.90;;;;;;5091724;28;19915;-61
2022/02/23 12:59:29;;;;;;;;;;;11.80;99.90;;;;;;5091749;28;20286;-61
2022/02/23 13:01:56;;;;;;;;;;;11.70;99.90;;;;;;5091618;28;20263;-62
2022/02/23 13:04:29;;;;;;;;;;;12.00;99.90;;;;;;5094829;28;19916;-62
2022/02/23 13:07:01;;;;;;;;;;;11.90;99.90;;;;;;5095300;28;19930;-62
2022/02/23 13:09:30;;;;;;;;;;;12.10;99.90;;;;;;5095088;28;20324;-62
2022/02/23 13:11:56;;;;;;;;;;;12.00;99.90;;;;;;5095063;28;19920;-62
2022/02/23 13:14:23;;;;;;;;;;;12.10;99.90;;;;;;5094919;28;19916;-61
2022/02/23 13:16:50;;;;;;;;;;;12.30;99.90;;;;;;5095052;28;19961;-62
2022/02/23 13:19:15;;;;;;;;;;;12.50;99.90;;;;;;5095105;28;20021;-62
2022/02/23 13:21:52;;;;;;;;;;;12.30;99.90;;;;;;5094855;28;19998;-62
2022/02/23 13:24:19;;;;;;;;;;;12.40;99.90;;;;;;5094909;28;19923;-63
2022/02/23 13:26:47;;;;;;;;;;;12.50;99.90;;;;;;5094781;28;20259;-61
2022/02/23 13:29:21;;;;;;;;;;;12.50;99.90;;;;;;5094900;28;19916;-61
2022/02/23 13:31:47;;;;;;;;;;;12.40;99.90;;;;;;5094818;28;20289;-62
2022/02/23 13:34:13;;;;;;;;;;;12.40;99.90;;;;;;5094561;28;19927;-62
2022/02/23 13:36:40;;;;;;;;;;;12.30;99.90;;;;;;5094780;28;19965;-62
2022/02/23 13:39:20;;;;;;;;;;;12.50;99.90;;;;;;5094687;28;19931;-61
2022/02/23 13:41:53;;;;;;;;;;;12.60;99.90;;;;;;5094725;28;19923;-61
2022/02/23 13:44:23;;;;;;;;;;;12.50;99.90;;;;;;5094540;28;20346;-61
2022/02/23 13:46:55;;;;;;;;;;;12.30;99.90;;;;;;5094399;28;19963;-62
2022/02/23 13:49:21;;;;;;;;;;;12.30;99.90;;;;;;5094406;28;19916;-62
2022/02/23 13:51:46;;;;;;;;;;;12.10;99.90;;;;;;5094247;28;20284;-62
2022/02/23 13:54:12;;;;;;;;;;;12.20;99.90;;;;;;5094573;28;20346;-62
2022/02/23 13:56:41;;;;;;;;;;;12.30;99.90;;;;;;5094199;28;20321;-61
2022/02/23 13:59:07;;;;;;;;;;;12.10;99.90;;;;;;5094168;28;20335;-62
2022/02/23 14:01:32;;;;;;;;;;;12.00;99.90;;;;;;5094148;28;20007;-62
2022/02/23 14:03:58;;;;;;;;;;;11.90;99.90;;;;;;5092852;28;19922;-61
2022/02/23 14:06:25;;;;;;;;;;;12.00;99.90;;;;;;5093973;28;19924;-61
2022/02/23 14:08:58;;;;;;;;;;;12.00;99.90;;;;;;5094459;28;19926;-60
2022/02/23 14:11:25;;;;;;;;;;;12.00;99.90;;;;;;5094074;28;19995;-61
2022/02/23 14:13:52;;;;;;;;;;;12.10;99.90;;;;;;5093729;28;20321;-61
2022/02/23 14:16:18;;;;;;;;;;;11.90;99.90;;;;;;5093425;28;19916;-60
2022/02/23 14:18:48;;;;;;;;;;;11.90;99.90;;;;;;5093915;28;20315;-61
2022/02/23 14:21:13;;;;;;;;;;;11.70;99.90;;;;;;5094000;28;19916;-61
2022/02/23 14:23:39;;;;;;;;;;;11.70;99.90;;;;;;5093594;28;20030;-60
2022/02/23 14:26:06;;;;;;;;;;;11.80;99.90;;;;;;5093785;28;19916;-61
2022/02/23 14:28:38;;;;;;;;;;;11.90;99.90;;;;;;5093536;28;19969;-61